sensor_id;sensor_type;location;lat;lon;timestamp;pressure;altitude;pressure_sealevel;temperature;humidity
12676;BME280;63820;65.654;21.944;2023-02-01T00:00:50;98598.72;;;-10.88;100.00
12676;BME280;63820;65.654;21.944;2023-02-01T00:03:34;98600.47;;;-10.83;100.00
12676;BME280;63820;65.654;21.944;2023-02-01T00:06:18;98607.09;;;-10.88;100.00
12676;BME280;63820;65.654;21.944;2023-02-01T00:09:03;98610.41;;;-10.92;100.00
12676;BME280;63820;65.654;21.944;2023-02-01T00:11:47;98604.53;;;-10.94;100.00
12676;BME280;63820;65.654;21.944;2023-02-01T00:14:31;98602.75;;;-11.01;100.00
12676;BME280;63820;65.654;21.944;2023-02-01T00:17:22;98602.63;;;-11.12;100.00
12676;BME280;63820;65.654;21.944;2023-02-01T00:20:06;98610.97;;;-11.14;100.00
12676;BME280;63820;65.654;21.944;2023-02-01T00:22:51;98605.94;;;-11.16;100.00
12676;BME280;63820;65.654;21.944;2023-02-01T00:25:35;98605.13;;;-11.12;100.00
12676;BME280;63820;65.654;21.944;2023-02-01T00:28:19;98602.59;;;-11.13;100.00
12676;BME280;63820;65.654;21.944;2023-02-01T00:31:04;98596.72;;;-11.15;100.00
12676;BME280;63820;65.654;21.944;2023-02-01T00:33:49;98605.19;;;-11.09;100.00
12676;BME280;63820;65.654;21.944;2023-02-01T00:36:33;98616.94;;;-11.03;100.00
12676;BME280;63820;65.654;21.944;2023-02-01T00:39:18;98610.31;;;-10.98;100.00
12676;BME280;63820;65.654;21.944;2023-02-01T00:42:02;98605.31;;;-10.97;100.00
12676;BME280;63820;65.654;21.944;2023-02-01T00:44:47;98602.06;;;-10.88;100.00
12676;BME280;63820;65.654;21.944;2023-02-01T00:47:31;98606.25;;;-10.88;100.00
12676;BME280;63820;65.654;21.944;2023-02-01T00:50:15;98600.44;;;-10.86;100.00
12676;BME280;63820;65.654;21.944;2023-02-01T00:52:59;98598.78;;;-10.84;100.00
12676;BME280;63820;65.654;21.944;2023-02-01T00:55:47;98597.94;;;-10.84;100.00
12676;BME280;63820;65.654;21.944;2023-02-01T00:58:32;98604.63;;;-10.85;100.00
12676;BME280;63820;65.654;21.944;2023-02-01T01:01:22;98606.28;;;-10.87;100.00
12676;BME280;63820;65.654;21.944;2023-02-01T01:04:07;98615.44;;;-10.89;100.00
12676;BME280;63820;65.654;21.944;2023-02-01T01:06:51;98619.63;;;-10.91;100.00
12676;BME280;63820;65.654;21.944;2023-02-01T01:09:35;98625.41;;;-10.95;100.00
12676;BME280;63820;65.654;21.944;2023-02-01T01:12:19;98627.81;;;-11.06;100.00
12676;BME280;63820;65.654;21.944;2023-02-01T01:15:04;98631.91;;;-11.12;100.00
12676;BME280;63820;65.654;21.944;2023-02-01T01:17:48;98621.75;;;-11.22;100.00
12676;BME280;63820;65.654;21.944;2023-02-01T01:20:34;98620.94;;;-11.19;100.00
12676;BME280;63820;65.654;21.944;2023-02-01T01:23:19;98625.94;;;-11.20;100.00
12676;BME280;63820;65.654;21.944;2023-02-01T01:26:08;98635.09;;;-11.23;100.00
12676;BME280;63820;65.654;21.944;2023-02-01T01:28:55;98628.41;;;-11.24;100.00
12676;BME280;63820;65.654;21.944;2023-02-01T01:31:39;98633.41;;;-11.24;100.00
12676;BME280;63820;65.654;21.944;2023-02-01T01:34:24;98629.34;;;-11.17;100.00
12676;BME280;63820;65.654;21.944;2023-02-01T01:37:08;98625.13;;;-11.19;100.00
12676;BME280;63820;65.654;21.944;2023-02-01T01:39:52;98631.69;;;-11.28;100.00
12676;BME280;63820;65.654;21.944;2023-02-01T01:42:38;98635.72;;;-11.40;100.00
12676;BME280;63820;65.654;21.944;2023-02-01T01:48:28;98640.19;;;-11.80;100.00
12676;BME280;63820;65.654;21.944;2023-02-01T01:51:13;98639.06;;;-11.99;100.00
12676;BME280;63820;65.654;21.944;2023-02-01T01:54:47;98633.75;;;-12.17;100.00
12676;BME280;63820;65.654;21.944;2023-02-01T01:57:12;98640.84;;;-12.41;100.00
12676;BME280;63820;65.654;21.944;2023-02-01T02:00:19;98637.97;;;-12.63;100.00
12676;BME280;63820;65.654;21.944;2023-02-01T02:03:11;98639.31;;;-12.80;100.00
12676;BME280;63820;65.654;21.944;2023-02-01T02:05:58;98645.88;;;-12.85;100.00
12676;BME280;63820;65.654;21.944;2023-02-01T02:08:44;98644.88;;;-12.95;100.00
12676;BME280;63820;65.654;21.944;2023-02-01T02:11:28;98649.88;;;-12.95;100.00
12676;BME280;63820;65.654;21.944;2023-02-01T02:14:15;98652.94;;;-13.08;100.00
12676;BME280;63820;65.654;21.944;2023-02-01T02:26:29;98662.78;;;-13.56;100.00
12676;BME280;63820;65.654;21.944;2023-02-01T02:32:54;98663.00;;;-13.83;100.00
12676;BME280;63820;65.654;21.944;2023-02-01T02:36:03;98670.22;;;-13.94;100.00
12676;BME280;63820;65.654;21.944;2023-02-01T02:39:05;98671.63;;;-14.05;100.00
12676;BME280;63820;65.654;21.944;2023-02-01T02:42:36;98681.31;;;-14.17;100.00
12676;BME280;63820;65.654;21.944;2023-02-01T02:45:40;98677.84;;;-14.22;100.00
12676;BME280;63820;65.654;21.944;2023-02-01T02:49:11;98674.28;;;-14.32;100.00
12676;BME280;63820;65.654;21.944;2023-02-01T02:52:15;98685.91;;;-14.32;100.00
12676;BME280;63820;65.654;21.944;2023-02-01T02:55:21;98688.28;;;-14.37;100.00
12676;BME280;63820;65.654;21.944;2023-02-01T02:58:07;98692.44;;;-14.37;100.00
12676;BME280;63820;65.654;21.944;2023-02-01T03:01:12;98695.72;;;-14.38;100.00
12676;BME280;63820;65.654;21.944;2023-02-01T03:04:15;98697.44;;;-14.37;100.00
12676;BME280;63820;65.654;21.944;2023-02-01T03:07:45;98705.06;;;-14.31;100.00
12676;BME280;63820;65.654;21.944;2023-02-01T03:16:22;98708.69;;;-14.20;100.00
12676;BME280;63820;65.654;21.944;2023-02-01T03:19:22;98704.59;;;-14.18;100.00
12676;BME280;63820;65.654;21.944;2023-02-01T03:22:12;98703.84;;;-14.14;100.00
12676;BME280;63820;65.654;21.944;2023-02-01T03:25:09;98696.53;;;-14.08;100.00
12676;BME280;63820;65.654;21.944;2023-02-01T03:28:02;98697.22;;;-14.13;100.00
12676;BME280;63820;65.654;21.944;2023-02-01T03:30:48;98707.47;;;-14.03;100.00
12676;BME280;63820;65.654;21.944;2023-02-01T03:33:33;98707.66;;;-13.95;100.00
12676;BME280;63820;65.654;21.944;2023-02-01T03:36:24;98702.94;;;-13.84;100.00
12676;BME280;63820;65.654;21.944;2023-02-01T03:42:00;98705.56;;;-13.78;100.00
12676;BME280;63820;65.654;21.944;2023-02-01T03:47:55;98721.56;;;-13.72;100.00
12676;BME280;63820;65.654;21.944;2023-02-01T03:50:46;98725.84;;;-13.66;100.00
12676;BME280;63820;65.654;21.944;2023-02-01T03:53:34;98725.94;;;-13.63;100.00
12676;BME280;63820;65.654;21.944;2023-02-01T03:56:21;98735.63;;;-13.75;100.00
12676;BME280;63820;65.654;21.944;2023-02-01T03:59:07;98742.16;;;-13.80;100.00
12676;BME280;63820;65.654;21.944;2023-02-01T04:01:52;98740.31;;;-13.88;100.00
12676;BME280;63820;65.654;21.944;2023-02-01T04:04:37;98748.47;;;-13.95;100.00
12676;BME280;63820;65.654;21.944;2023-02-01T04:07:21;98750.00;;;-14.00;100.00
12676;BME280;63820;65.654;21.944;2023-02-01T04:10:05;98755.84;;;-13.99;100.00
12676;BME280;63820;65.654;21.944;2023-02-01T04:12:49;98749.16;;;-14.00;100.00
12676;BME280;63820;65.654;21.944;2023-02-01T04:15:34;98751.53;;;-14.05;100.00
12676;BME280;63820;65.654;21.944;2023-02-01T04:18:18;98749.75;;;-14.09;100.00
12676;BME280;63820;65.654;21.944;2023-02-01T04:21:03;98758.31;;;-14.01;100.00
12676;BME280;63820;65.654;21.944;2023-02-01T04:23:47;98753.66;;;-13.87;100.00
12676;BME280;63820;65.654;21.944;2023-02-01T04:26:31;98744.59;;;-13.83;100.00
12676;BME280;63820;65.654;21.944;2023-02-01T04:29:14;98749.97;;;-13.68;100.00
12676;BME280;63820;65.654;21.944;2023-02-01T04:31:59;98748.63;;;-13.54;100.00
12676;BME280;63820;65.654;21.944;2023-02-01T04:34:42;98756.53;;;-13.36;100.00
12676;BME280;63820;65.654;21.944;2023-02-01T04:37:27;98750.03;;;-13.29;100.00
12676;BME280;63820;65.654;21.944;2023-02-01T04:40:11;98750.13;;;-13.25;100.00
12676;BME280;63820;65.654;21.944;2023-02-01T04:42:56;98761.75;;;-13.27;100.00
12676;BME280;63820;65.654;21.944;2023-02-01T04:45:40;98761.75;;;-13.27;100.00
12676;BME280;63820;65.654;21.944;2023-02-01T04:48:24;98760.22;;;-13.22;100.00
12676;BME280;63820;65.654;21.944;2023-02-01T04:51:09;98765.28;;;-13.18;100.00
12676;BME280;63820;65.654;21.944;2023-02-01T04:53:53;98757.88;;;-13.12;100.00
12676;BME280;63820;65.654;21.944;2023-02-01T04:56:39;98761.31;;;-13.07;100.00
12676;BME280;63820;65.654;21.944;2023-02-01T04:59:24;98774.09;;;-12.95;100.00
12676;BME280;63820;65.654;21.944;2023-02-01T05:02:08;98770.97;;;-12.86;100.00
12676;BME280;63820;65.654;21.944;2023-02-01T05:04:52;98774.50;;;-12.77;100.00
12676;BME280;63820;65.654;21.944;2023-02-01T05:07:38;98773.84;;;-12.68;100.00
12676;BME280;63820;65.654;21.944;2023-02-01T05:10:22;98782.31;;;-12.63;100.00
12676;BME280;63820;65.654;21.944;2023-02-01T05:13:08;98783.91;;;-12.67;100.00
12676;BME280;63820;65.654;21.944;2023-02-01T05:16:11;98789.84;;;-12.62;100.00
12676;BME280;63820;65.654;21.944;2023-02-01T05:18:55;98794.97;;;-12.56;100.00
12676;BME280;63820;65.654;21.944;2023-02-01T05:21:39;98791.78;;;-12.47;100.00
12676;BME280;63820;65.654;21.944;2023-02-01T05:24:23;98793.81;;;-12.29;100.00
12676;BME280;63820;65.654;21.944;2023-02-01T05:27:07;98801.94;;;-11.99;100.00
12676;BME280;63820;65.654;21.944;2023-02-01T05:29:52;98798.78;;;-11.88;100.00
12676;BME280;63820;65.654;21.944;2023-02-01T05:32:36;98802.13;;;-11.88;100.00
12676;BME280;63820;65.654;21.944;2023-02-01T05:35:20;98796.28;;;-11.88;100.00
12676;BME280;63820;65.654;21.944;2023-02-01T05:38:04;98791.16;;;-11.95;100.00
12676;BME280;63820;65.654;21.944;2023-02-01T05:40:48;98795.19;;;-12.03;100.00
12676;BME280;63820;65.654;21.944;2023-02-01T05:43:33;98799.31;;;-12.05;100.00
12676;BME280;63820;65.654;21.944;2023-02-01T05:46:17;98800.97;;;-12.05;100.00
12676;BME280;63820;65.654;21.944;2023-02-01T05:49:01;98806.84;;;-12.05;100.00
12676;BME280;63820;65.654;21.944;2023-02-01T05:51:46;98810.28;;;-12.00;100.00
12676;BME280;63820;65.654;21.944;2023-02-01T05:54:30;98812.16;;;-11.88;100.00
12676;BME280;63820;65.654;21.944;2023-02-01T05:57:14;98815.00;;;-11.68;100.00
12676;BME280;63820;65.654;21.944;2023-02-01T05:59:59;98815.28;;;-11.53;100.00
12676;BME280;63820;65.654;21.944;2023-02-01T06:02:44;98816.59;;;-11.22;100.00
12676;BME280;63820;65.654;21.944;2023-02-01T06:05:28;98811.97;;;-10.96;100.00
12676;BME280;63820;65.654;21.944;2023-02-01T06:08:13;98814.69;;;-10.82;100.00
12676;BME280;63820;65.654;21.944;2023-02-01T06:11:02;98817.41;;;-10.69;100.00
12676;BME280;63820;65.654;21.944;2023-02-01T06:13:46;98826.06;;;-10.48;100.00
12676;BME280;63820;65.654;21.944;2023-02-01T06:16:30;98823.88;;;-10.18;100.00
12676;BME280;63820;65.654;21.944;2023-02-01T06:19:15;98825.88;;;-9.93;100.00
12676;BME280;63820;65.654;21.944;2023-02-01T06:21:59;98836.06;;;-9.79;100.00
12676;BME280;63820;65.654;21.944;2023-02-01T06:24:43;98836.06;;;-9.80;100.00
12676;BME280;63820;65.654;21.944;2023-02-01T06:27:27;98836.03;;;-9.83;100.00
12676;BME280;63820;65.654;21.944;2023-02-01T06:30:12;98831.69;;;-9.95;100.00
12676;BME280;63820;65.654;21.944;2023-02-01T06:32:59;98831.53;;;-10.09;100.00
12676;BME280;63820;65.654;21.944;2023-02-01T06:35:43;98829.72;;;-10.22;100.00
12676;BME280;63820;65.654;21.944;2023-02-01T06:38:28;98847.28;;;-10.25;100.00
12676;BME280;63820;65.654;21.944;2023-02-01T06:41:12;98839.59;;;-10.37;100.00
12676;BME280;63820;65.654;21.944;2023-02-01T06:43:56;98841.16;;;-10.47;100.00
12676;BME280;63820;65.654;21.944;2023-02-01T06:46:40;98842.63;;;-10.61;100.00
12676;BME280;63820;65.654;21.944;2023-02-01T06:49:25;98839.91;;;-10.75;100.00
12676;BME280;63820;65.654;21.944;2023-02-01T06:52:09;98849.91;;;-10.78;100.00
12676;BME280;63820;65.654;21.944;2023-02-01T06:54:53;98855.81;;;-10.74;100.00
12676;BME280;63820;65.654;21.944;2023-02-01T06:57:37;98846.59;;;-10.77;100.00
12676;BME280;63820;65.654;21.944;2023-02-01T07:00:22;98835.53;;;-10.88;100.00
12676;BME280;63820;65.654;21.944;2023-02-01T07:03:06;98862.69;;;-10.64;100.00
12676;BME280;63820;65.654;21.944;2023-02-01T07:05:55;98855.25;;;-10.57;100.00
12676;BME280;63820;65.654;21.944;2023-02-01T07:08:39;98868.13;;;-10.32;100.00
12676;BME280;63820;65.654;21.944;2023-02-01T07:11:23;98882.59;;;-10.13;100.00
12676;BME280;63820;65.654;21.944;2023-02-01T07:14:07;98880.97;;;-10.09;100.00
12676;BME280;63820;65.654;21.944;2023-02-01T07:16:51;98876.00;;;-10.05;100.00
12676;BME280;63820;65.654;21.944;2023-02-01T07:19:36;98882.00;;;-9.94;100.00
12676;BME280;63820;65.654;21.944;2023-02-01T07:22:20;98876.28;;;-9.80;100.00
12676;BME280;63820;65.654;21.944;2023-02-01T07:25:04;98893.31;;;-9.58;100.00
12676;BME280;63820;65.654;21.944;2023-02-01T07:27:49;98885.00;;;-9.51;100.00
12676;BME280;63820;65.654;21.944;2023-02-01T07:30:33;98886.81;;;-9.41;100.00
12676;BME280;63820;65.654;21.944;2023-02-01T07:33:21;98887.72;;;-9.30;100.00
12676;BME280;63820;65.654;21.944;2023-02-01T07:36:08;98891.22;;;-9.14;100.00
12676;BME280;63820;65.654;21.944;2023-02-01T07:38:54;98907.31;;;-9.01;100.00
12676;BME280;63820;65.654;21.944;2023-02-01T07:41:38;98911.56;;;-8.93;100.00
12676;BME280;63820;65.654;21.944;2023-02-01T07:44:22;98904.13;;;-8.82;100.00
12676;BME280;63820;65.654;21.944;2023-02-01T07:47:07;98905.94;;;-8.66;100.00
12676;BME280;63820;65.654;21.944;2023-02-01T07:49:50;98921.13;;;-8.56;100.00
12676;BME280;63820;65.654;21.944;2023-02-01T07:52:35;98910.25;;;-8.49;100.00
12676;BME280;63820;65.654;21.944;2023-02-01T07:55:20;98915.34;;;-8.43;100.00
12676;BME280;63820;65.654;21.944;2023-02-01T07:58:05;98914.56;;;-8.33;100.00
12676;BME280;63820;65.654;21.944;2023-02-01T08:00:50;98922.97;;;-8.33;100.00
12676;BME280;63820;65.654;21.944;2023-02-01T08:03:54;98921.25;;;-8.29;100.00
12676;BME280;63820;65.654;21.944;2023-02-01T08:06:39;98919.66;;;-8.18;100.00
12676;BME280;63820;65.654;21.944;2023-02-01T08:09:24;98922.22;;;-8.07;100.00
12676;BME280;63820;65.654;21.944;2023-02-01T08:12:09;98921.47;;;-7.96;100.00
12676;BME280;63820;65.654;21.944;2023-02-01T08:14:54;98935.00;;;-7.78;100.00
12676;BME280;63820;65.654;21.944;2023-02-01T08:17:40;98935.88;;;-7.73;100.00
12676;BME280;63820;65.654;21.944;2023-02-01T08:20:24;98937.56;;;-7.68;100.00
12676;BME280;63820;65.654;21.944;2023-02-01T08:23:09;98934.22;;;-7.70;100.00
12676;BME280;63820;65.654;21.944;2023-02-01T08:25:53;98937.56;;;-7.68;100.00
12676;BME280;63820;65.654;21.944;2023-02-01T08:28:38;98939.28;;;-7.65;100.00
12676;BME280;63820;65.654;21.944;2023-02-01T08:31:25;98944.31;;;-7.68;100.00
12676;BME280;63820;65.654;21.944;2023-02-01T08:34:09;98950.22;;;-7.66;100.00
12676;BME280;63820;65.654;21.944;2023-02-01T08:36:55;98950.16;;;-7.75;100.00
12676;BME280;63820;65.654;21.944;2023-02-01T08:39:42;98943.44;;;-7.72;100.00
12676;BME280;63820;65.654;21.944;2023-02-01T08:42:31;98951.88;;;-7.68;100.00
12676;BME280;63820;65.654;21.944;2023-02-01T08:45:33;98961.16;;;-7.63;100.00
12676;BME280;63820;65.654;21.944;2023-02-01T08:48:17;98961.97;;;-7.71;100.00
12676;BME280;63820;65.654;21.944;2023-02-01T08:51:06;98956.88;;;-7.77;100.00
12676;BME280;63820;65.654;21.944;2023-02-01T08:53:51;98962.78;;;-7.75;100.00
12676;BME280;63820;65.654;21.944;2023-02-01T08:56:35;98965.25;;;-7.84;100.00
12676;BME280;63820;65.654;21.944;2023-02-01T08:59:19;98966.09;;;-7.84;100.00
12676;BME280;63820;65.654;21.944;2023-02-01T09:02:04;98972.94;;;-7.60;100.00
12676;BME280;63820;65.654;21.944;2023-02-01T09:04:49;98980.66;;;-7.31;100.00
12676;BME280;63820;65.654;21.944;2023-02-01T09:07:34;98980.72;;;-7.01;100.00
12676;BME280;63820;65.654;21.944;2023-02-01T09:10:19;98987.50;;;-6.83;100.00
12676;BME280;63820;65.654;21.944;2023-02-01T09:13:03;98987.53;;;-6.58;100.00
12676;BME280;63820;65.654;21.944;2023-02-01T09:15:50;98990.09;;;-6.40;100.00
12676;BME280;63820;65.654;21.944;2023-02-01T09:18:34;98991.78;;;-6.45;100.00
12676;BME280;63820;65.654;21.944;2023-02-01T09:21:19;98989.25;;;-6.45;100.00
12676;BME280;63820;65.654;21.944;2023-02-01T09:24:03;98988.41;;;-6.50;100.00
12676;BME280;63820;65.654;21.944;2023-02-01T09:26:48;98988.41;;;-6.58;100.00
12676;BME280;63820;65.654;21.944;2023-02-01T09:29:32;99006.09;;;-6.41;100.00
12676;BME280;63820;65.654;21.944;2023-02-01T09:32:16;98999.25;;;-5.72;100.00
12676;BME280;63820;65.654;21.944;2023-02-01T09:35:00;99011.50;;;-4.70;100.00
12676;BME280;63820;65.654;21.944;2023-02-01T09:37:44;98990.56;;;-3.91;100.00
12676;BME280;63820;65.654;21.944;2023-02-01T09:40:28;99004.59;;;-3.53;100.00
12676;BME280;63820;65.654;21.944;2023-02-01T09:43:29;99014.91;;;-3.67;100.00
12676;BME280;63820;65.654;21.944;2023-02-01T09:46:32;99025.69;;;-3.44;100.00
12676;BME280;63820;65.654;21.944;2023-02-01T09:49:22;99019.84;;;-3.52;100.00
12676;BME280;63820;65.654;21.944;2023-02-01T09:52:10;99027.16;;;-4.12;100.00
12676;BME280;63820;65.654;21.944;2023-02-01T09:55:09;99040.16;;;-4.51;100.00
12676;BME280;63820;65.654;21.944;2023-02-01T09:58:01;99037.00;;;-5.01;100.00
12676;BME280;63820;65.654;21.944;2023-02-01T10:01:19;99039.56;;;-5.08;100.00
12676;BME280;63820;65.654;21.944;2023-02-01T10:04:13;99048.03;;;-5.06;100.00
12676;BME280;63820;65.654;21.944;2023-02-01T10:13:23;99068.09;;;-4.59;100.00
12676;BME280;63820;65.654;21.944;2023-02-01T10:23:04;99062.66;;;-4.09;100.00
12676;BME280;63820;65.654;21.944;2023-02-01T10:26:32;99060.97;;;-4.10;100.00
12676;BME280;63820;65.654;21.944;2023-02-01T10:29:18;99072.00;;;-4.14;100.00
12676;BME280;63820;65.654;21.944;2023-02-01T10:32:10;99067.84;;;-4.18;100.00
12676;BME280;63820;65.654;21.944;2023-02-01T10:35:07;99070.28;;;-4.10;100.00
12676;BME280;63820;65.654;21.944;2023-02-01T10:37:54;99082.81;;;-3.84;100.00
12676;BME280;63820;65.654;21.944;2023-02-01T10:40:39;99087.81;;;-3.75;100.00
12676;BME280;63820;65.654;21.944;2023-02-01T10:43:24;99080.13;;;-3.68;100.00
12676;BME280;63820;65.654;21.944;2023-02-01T10:46:09;99096.00;;;-3.44;100.00
12676;BME280;63820;65.654;21.944;2023-02-01T10:48:55;99095.97;;;-3.41;100.00
12676;BME280;63820;65.654;21.944;2023-02-01T10:54:46;99097.50;;;-3.23;100.00
12676;BME280;63820;65.654;21.944;2023-02-01T10:57:31;99098.97;;;-3.04;100.00
12676;BME280;63820;65.654;21.944;2023-02-01T11:00:20;99101.53;;;-3.06;100.00
12676;BME280;63820;65.654;21.944;2023-02-01T11:03:21;99104.25;;;-3.21;100.00
12676;BME280;63820;65.654;21.944;2023-02-01T11:06:44;99104.56;;;-3.53;100.00
12676;BME280;63820;65.654;21.944;2023-02-01T11:09:29;99110.59;;;-3.65;100.00
12676;BME280;63820;65.654;21.944;2023-02-01T11:12:44;99117.47;;;-3.77;100.00
12676;BME280;63820;65.654;21.944;2023-02-01T11:15:27;99116.69;;;-3.85;100.00
12676;BME280;63820;65.654;21.944;2023-02-01T11:18:18;99122.66;;;-3.94;100.00
12676;BME280;63820;65.654;21.944;2023-02-01T11:21:05;99119.94;;;-3.71;100.00
12676;BME280;63820;65.654;21.944;2023-02-01T11:23:49;99122.88;;;-3.17;100.00
12676;BME280;63820;65.654;21.944;2023-02-01T11:26:39;99121.25;;;-1.92;100.00
12676;BME280;63820;65.654;21.944;2023-02-01T11:29:26;99126.19;;;-0.85;100.00
12676;BME280;63820;65.654;21.944;2023-02-01T11:32:16;99130.56;;;-0.48;100.00
12676;BME280;63820;65.654;21.944;2023-02-01T11:35:04;99135.34;;;0.06;100.00
12676;BME280;63820;65.654;21.944;2023-02-01T11:37:55;99131.81;;;0.48;96.87
12676;BME280;63820;65.654;21.944;2023-02-01T11:40:42;99133.84;;;0.70;93.14
12676;BME280;63820;65.654;21.944;2023-02-01T11:43:28;99140.63;;;0.35;93.29
12676;BME280;63820;65.654;21.944;2023-02-01T11:46:17;99147.28;;;-0.32;98.03
12676;BME280;63820;65.654;21.944;2023-02-01T11:49:23;99145.38;;;-1.09;100.00
12676;BME280;63820;65.654;21.944;2023-02-01T12:07:32;99174.97;;;-2.77;100.00
12676;BME280;63820;65.654;21.944;2023-02-01T12:26:38;99199.63;;;-3.81;100.00
12676;BME280;63820;65.654;21.944;2023-02-01T12:29:35;99199.63;;;-3.84;100.00
12676;BME280;63820;65.654;21.944;2023-02-01T12:35:55;99203.78;;;-3.70;100.00
12676;BME280;63820;65.654;21.944;2023-02-01T12:38:57;99213.84;;;-3.54;100.00
12676;BME280;63820;65.654;21.944;2023-02-01T12:45:01;99218.94;;;-3.56;100.00
12676;BME280;63820;65.654;21.944;2023-02-01T12:47:54;99217.25;;;-3.57;100.00
12676;BME280;63820;65.654;21.944;2023-02-01T12:50:49;99217.22;;;-3.52;100.00
12676;BME280;63820;65.654;21.944;2023-02-01T12:53:48;99226.50;;;-3.47;100.00
12676;BME280;63820;65.654;21.944;2023-02-01T12:56:42;99231.56;;;-3.44;100.00
12676;BME280;63820;65.654;21.944;2023-02-01T12:59:35;99228.28;;;-3.61;100.00
12676;BME280;63820;65.654;21.944;2023-02-01T13:02:33;99234.19;;;-3.56;100.00
12676;BME280;63820;65.654;21.944;2023-02-01T13:05:27;99240.09;;;-3.54;100.00
12676;BME280;63820;65.654;21.944;2023-02-01T13:11:34;99246.91;;;-3.59;100.00
12676;BME280;63820;65.654;21.944;2023-02-01T13:22:42;99258.84;;;-3.75;100.00
12676;BME280;63820;65.654;21.944;2023-02-01T13:25:35;99256.38;;;-3.84;100.00
12676;BME280;63820;65.654;21.944;2023-02-01T13:28:44;99267.47;;;-4.09;100.00
12676;BME280;63820;65.654;21.944;2023-02-01T13:35:03;99271.84;;;-4.34;100.00
12676;BME280;63820;65.654;21.944;2023-02-01T13:43:48;99293.03;;;-4.70;100.00
12676;BME280;63820;65.654;21.944;2023-02-01T13:46:43;99293.06;;;-4.75;100.00
12676;BME280;63820;65.654;21.944;2023-02-01T13:49:37;99305.75;;;-4.96;100.00
12676;BME280;63820;65.654;21.944;2023-02-01T13:52:37;99306.59;;;-5.20;100.00
12676;BME280;63820;65.654;21.944;2023-02-01T13:55:26;99309.94;;;-5.50;100.00
12676;BME280;63820;65.654;21.944;2023-02-01T13:58:18;99314.06;;;-5.76;100.00
12676;BME280;63820;65.654;21.944;2023-02-01T14:07:29;99334.78;;;-6.60;100.00
12676;BME280;63820;65.654;21.944;2023-02-01T14:13:39;99341.97;;;-7.10;100.00
12676;BME280;63820;65.654;21.944;2023-02-01T14:16:24;99340.97;;;-7.32;100.00
12676;BME280;63820;65.654;21.944;2023-02-01T14:19:23;99348.31;;;-7.53;100.00
12676;BME280;63820;65.654;21.944;2023-02-01T14:24:58;99357.06;;;-7.95;100.00
12676;BME280;63820;65.654;21.944;2023-02-01T14:27:42;99365.28;;;-8.09;100.00
12676;BME280;63820;65.654;21.944;2023-02-01T14:30:27;99365.16;;;-8.18;100.00
12676;BME280;63820;65.654;21.944;2023-02-01T14:33:18;99364.25;;;-8.24;100.00
12676;BME280;63820;65.654;21.944;2023-02-01T14:36:13;99367.25;;;-8.53;100.00
12676;BME280;63820;65.654;21.944;2023-02-01T14:38:58;99372.88;;;-8.70;100.00
12676;BME280;63820;65.654;21.944;2023-02-01T14:41:44;99371.84;;;-8.82;100.00
12676;BME280;63820;65.654;21.944;2023-02-01T14:44:32;99383.53;;;-8.86;100.00
12676;BME280;63820;65.654;21.944;2023-02-01T14:53:14;99402.28;;;-9.18;100.00
12676;BME280;63820;65.654;21.944;2023-02-01T14:59:01;99411.22;;;-9.34;100.00
12676;BME280;63820;65.654;21.944;2023-02-01T15:01:53;99411.94;;;-9.43;100.00
12676;BME280;63820;65.654;21.944;2023-02-01T15:04:42;99413.56;;;-9.45;100.00
12676;BME280;63820;65.654;21.944;2023-02-01T15:07:27;99413.44;;;-9.51;100.00
12676;BME280;63820;65.654;21.944;2023-02-01T15:10:13;99420.88;;;-9.57;100.00
12676;BME280;63820;65.654;21.944;2023-02-01T15:12:57;99415.66;;;-9.66;100.00
12676;BME280;63820;65.654;21.944;2023-02-01T15:15:42;99419.66;;;-9.76;100.00
12676;BME280;63820;65.654;21.944;2023-02-01T15:18:26;99422.94;;;-9.80;100.00
12676;BME280;63820;65.654;21.944;2023-02-01T15:21:21;99427.97;;;-9.80;100.00
12676;BME280;63820;65.654;21.944;2023-02-01T15:24:29;99431.34;;;-9.78;100.00
12676;BME280;63820;65.654;21.944;2023-02-01T15:27:13;99439.69;;;-9.80;100.00
12676;BME280;63820;65.654;21.944;2023-02-01T15:30:12;99437.16;;;-9.80;100.00
12676;BME280;63820;65.654;21.944;2023-02-01T15:33:15;99442.06;;;-9.86;100.00
12676;BME280;63820;65.654;21.944;2023-02-01T15:42:00;99466.06;;;-10.01;100.00
12676;BME280;63820;65.654;21.944;2023-02-01T15:44:47;99460.03;;;-10.09;100.00
12676;BME280;63820;65.654;21.944;2023-02-01T15:47:31;99468.38;;;-10.10;100.00
12676;BME280;63820;65.654;21.944;2023-02-01T15:50:17;99463.25;;;-10.14;100.00
12676;BME280;63820;65.654;21.944;2023-02-01T15:53:03;99468.28;;;-10.14;100.00
12676;BME280;63820;65.654;21.944;2023-02-01T15:55:52;99468.22;;;-10.16;100.00
12676;BME280;63820;65.654;21.944;2023-02-01T15:58:41;99475.59;;;-10.25;100.00
12676;BME280;63820;65.654;21.944;2023-02-01T16:01:26;99469.66;;;-10.29;100.00
12676;BME280;63820;65.654;21.944;2023-02-01T16:04:20;99481.38;;;-10.29;100.00
12676;BME280;63820;65.654;21.944;2023-02-01T16:07:25;99481.22;;;-10.35;100.00
12676;BME280;63820;65.654;21.944;2023-02-01T16:10:40;99486.16;;;-10.40;100.00
12676;BME280;63820;65.654;21.944;2023-02-01T16:13:24;99491.97;;;-10.42;100.00
12676;BME280;63820;65.654;21.944;2023-02-01T16:16:09;99488.56;;;-10.44;100.00
12676;BME280;63820;65.654;21.944;2023-02-01T16:18:57;99491.91;;;-10.45;100.00
12676;BME280;63820;65.654;21.944;2023-02-01T16:21:41;99489.22;;;-10.51;100.00
12676;BME280;63820;65.654;21.944;2023-02-01T16:24:25;99500.28;;;-10.45;100.00
12676;BME280;63820;65.654;21.944;2023-02-01T16:27:10;99505.53;;;-10.34;100.00
12676;BME280;63820;65.654;21.944;2023-02-01T16:29:54;99503.03;;;-10.34;100.00
12676;BME280;63820;65.654;21.944;2023-02-01T16:32:40;99524.63;;;-10.42;100.00
12676;BME280;63820;65.654;21.944;2023-02-01T16:35:28;99517.72;;;-10.51;100.00